createdAt,value
2023-02-15T00:03:24.440Z,69.45
2023-02-15T00:08:47.138Z,51.80
2023-02-15T00:14:09.503Z,59.97
2023-02-15T00:19:33.318Z,54.40
2023-02-15T00:24:55.578Z,63.45
2023-02-15T00:30:18.478Z,63.80
2023-02-15T00:35:40.871Z,73.83
2023-02-15T00:41:08.439Z,65.22
2023-02-15T00:46:30.905Z,64.37
2023-02-15T00:51:53.240Z,70.75
2023-02-15T00:57:18.726Z,74.00
2023-02-15T01:02:41.164Z,75.17
2023-02-15T01:08:04.295Z,92.55
2023-02-15T01:13:28.156Z,118.22
2023-02-15T01:18:50.794Z,128.87
2023-02-15T01:24:13.319Z,138.97
2023-02-15T01:29:36.489Z,132.87
2023-02-15T01:34:58.911Z,139.32
2023-02-15T01:40:25.589Z,135.73
2023-02-15T01:45:49.773Z,137.68
2023-02-15T01:51:15.362Z,143.15
2023-02-15T01:56:41.568Z,148.85
2023-02-15T02:02:06.310Z,150.32
2023-02-15T02:07:33.788Z,144.00
2023-02-15T02:13:00.463Z,142.53
2023-02-15T02:18:47.153Z,137.70
2023-02-15T02:24:37.947Z,133.95
2023-02-15T02:30:35.531Z,135.28
2023-02-15T02:36:36.229Z,129.20
2023-02-15T02:42:26.260Z,121.40
2023-02-15T02:48:23.619Z,125.27
2023-02-15T02:53:47.860Z,113.20
2023-02-15T02:59:23.606Z,106.40
2023-02-15T03:04:50.719Z,106.85
2023-02-15T03:10:16.589Z,94.60
2023-02-15T03:16:01.656Z,96.77
2023-02-15T03:21:28.884Z,89.58
2023-02-15T03:26:54.501Z,89.85
2023-02-15T03:32:20.198Z,91.22
2023-02-15T03:37:49.762Z,82.00
2023-02-15T03:43:28.932Z,73.40
2023-02-15T03:48:58.970Z,77.85
2023-02-15T04:00:48.330Z,71.97
2023-02-15T04:06:10.717Z,70.83
2023-02-15T04:11:33.026Z,68.73
2023-02-15T04:16:55.400Z,75.97
2023-02-15T04:22:36.296Z,74.07
2023-02-15T04:28:01.778Z,72.60
2023-02-15T04:33:24.186Z,77.53
2023-02-15T04:38:46.802Z,73.33
2023-02-15T04:44:09.189Z,73.00
2023-02-15T04:49:31.393Z,76.73
2023-02-15T04:54:53.991Z,85.83
2023-02-15T05:00:18.639Z,82.77
2023-02-15T05:05:41.754Z,97.13
2023-02-15T05:11:05.112Z,107.43
2023-02-15T05:16:29.280Z,86.20
2023-02-15T05:21:52.685Z,78.73
2023-02-15T05:27:33.331Z,79.43
2023-02-15T05:32:55.634Z,102.17
2023-02-15T05:38:18.487Z,83.97
2023-02-15T05:43:41.289Z,80.83
2023-02-15T05:49:03.576Z,76.70
2023-02-15T05:54:26.017Z,84.65
2023-02-15T05:59:48.373Z,79.17
2023-02-15T06:05:11.806Z,74.80
2023-02-15T06:10:34.369Z,84.62
2023-02-15T06:15:56.776Z,79.93
2023-02-15T06:21:19.143Z,75.57
2023-02-15T06:26:41.374Z,83.35
2023-02-15T06:32:03.649Z,84.13
2023-02-15T06:37:25.924Z,81.30
2023-02-15T06:42:51.857Z,87.37
2023-02-15T06:48:14.247Z,83.40
2023-02-15T06:53:37.200Z,86.83
2023-02-15T06:59:00.144Z,87.53
2023-02-15T07:04:23.280Z,85.83
2023-02-15T07:09:45.918Z,79.10
2023-02-15T07:15:08.936Z,78.67
2023-02-15T07:20:39.096Z,71.13
2023-02-15T07:26:07.713Z,80.23
2023-02-15T07:31:30.399Z,107.20
2023-02-15T07:36:53.360Z,78.47
2023-02-15T07:42:15.736Z,77.60
2023-02-15T07:47:38.024Z,77.10
2023-02-15T07:53:00.386Z,67.13
2023-02-15T07:58:24.458Z,84.33
2023-02-15T08:03:46.935Z,79.93
2023-02-15T08:09:13.621Z,76.73
2023-02-15T08:14:37.137Z,72.75
2023-02-15T08:20:00.049Z,76.47
2023-02-15T08:25:22.823Z,77.77
2023-02-15T08:30:45.098Z,80.90
2023-02-15T08:36:14.500Z,77.40
2023-02-15T08:41:46.246Z,71.00
2023-02-15T08:47:08.569Z,70.80
2023-02-15T08:52:31.278Z,70.97
2023-02-15T08:57:55.248Z,70.33
2023-02-15T09:03:17.628Z,66.45
2023-02-15T09:08:40.591Z,56.57
2023-02-15T09:14:05.672Z,55.85
2023-02-15T09:19:30.772Z,49.63
2023-02-15T09:24:53.145Z,53.33
2023-02-15T09:30:16.314Z,50.17
2023-02-15T09:35:38.718Z,43.30
2023-02-15T09:41:08.919Z,42.63
2023-02-15T09:46:51.152Z,41.10
2023-02-15T09:52:18.230Z,44.53
2023-02-15T09:57:48.100Z,47.13
2023-02-15T10:08:49.067Z,40.37
2023-02-15T10:15:01.613Z,36.53
2023-02-15T10:20:48.499Z,42.40
2023-02-15T10:26:36.889Z,40.63
2023-02-15T10:32:31.877Z,49.73
2023-02-15T10:38:19.185Z,53.07
2023-02-15T10:44:07.247Z,53.57
2023-02-15T10:50:08.034Z,46.53
2023-02-15T10:55:38.158Z,55.23
2023-02-15T11:01:34.297Z,45.83
2023-02-15T11:07:01.170Z,40.93
2023-02-15T11:12:28.235Z,41.40
2023-02-15T11:17:55.422Z,47.63
2023-02-15T11:23:23.853Z,47.93
2023-02-15T11:28:56.957Z,57.93
2023-02-15T11:34:30.305Z,59.95
2023-02-15T11:39:55.598Z,50.03
2023-02-15T11:45:46.848Z,52.17
2023-02-15T11:51:10.198Z,49.43
2023-02-15T11:56:37.764Z,53.50
2023-02-15T12:02:02.596Z,58.00
2023-02-15T12:07:36.631Z,61.90
2023-02-15T12:13:17.422Z,55.67
2023-02-15T12:18:54.884Z,67.13
2023-02-15T12:24:30.134Z,69.20
2023-02-15T12:30:06.862Z,58.50
2023-02-15T12:35:41.901Z,61.20
2023-02-15T12:41:15.571Z,57.13
2023-02-15T12:46:47.414Z,62.03
2023-02-15T12:52:29.592Z,66.37
2023-02-15T12:57:52.538Z,70.33
2023-02-15T13:03:18.753Z,75.20
2023-02-15T13:08:48.376Z,77.53
2023-02-15T13:14:35.656Z,72.37
2023-02-15T13:20:06.462Z,71.43
2023-02-15T13:25:36.457Z,69.53
2023-02-15T13:36:58.902Z,82.33
2023-02-15T13:43:09.148Z,72.20
2023-02-15T13:49:04.920Z,74.13
2023-02-15T13:54:53.186Z,78.37
2023-02-15T14:00:29.247Z,77.33
2023-02-15T14:06:24.410Z,73.60
2023-02-15T14:12:23.527Z,71.00
2023-02-15T14:18:10.075Z,67.20
2023-02-15T14:23:50.351Z,73.30
2023-02-15T14:34:55.151Z,73.37
2023-02-15T14:40:52.898Z,79.57
2023-02-15T14:46:29.064Z,89.83
2023-02-15T14:52:06.694Z,84.57
2023-02-15T14:57:35.797Z,70.07
2023-02-15T15:03:03.628Z,69.53
2023-02-15T15:08:41.722Z,72.23
2023-02-15T15:14:18.858Z,69.53
2023-02-15T15:20:03.212Z,72.17
2023-02-15T15:25:53.896Z,69.07
2023-02-15T15:43:09.900Z,80.40
2023-02-15T15:48:52.225Z,81.37
2023-02-15T15:54:24.600Z,75.03
2023-02-15T15:59:50.330Z,72.35
2023-02-15T16:05:22.799Z,83.53
2023-02-15T16:10:47.609Z,81.08
2023-02-15T16:16:12.022Z,87.20
2023-02-15T16:21:39.319Z,80.37
2023-02-15T16:27:26.185Z,82.13
2023-02-15T16:32:50.359Z,85.45
2023-02-15T16:38:15.773Z,92.53
2023-02-15T16:43:41.553Z,91.10
2023-02-15T16:49:08.544Z,96.22
2023-02-15T16:54:35.380Z,104.43
2023-02-15T17:00:15.382Z,98.82
2023-02-15T17:05:41.844Z,101.70
2023-02-15T17:11:23.947Z,108.50
2023-02-15T17:17:00.119Z,105.55
2023-02-15T17:22:30.731Z,103.00
2023-02-15T17:27:55.608Z,103.27
2023-02-15T17:33:30.344Z,100.53
2023-02-15T17:39:07.988Z,106.67
2023-02-15T17:44:30.350Z,99.83
2023-02-15T17:49:53.088Z,100.20
2023-02-15T17:55:38.769Z,101.92
2023-02-15T18:01:23.232Z,111.50
2023-02-15T18:07:06.329Z,122.80
2023-02-15T18:12:44.064Z,123.10
2023-02-15T18:18:06.954Z,105.77
2023-02-15T18:23:30.976Z,105.47
2023-02-15T18:28:53.375Z,104.55
2023-02-15T18:34:20.324Z,105.67
2023-02-15T18:39:49.722Z,98.97
2023-02-15T18:45:30.446Z,111.57
2023-02-15T18:50:54.250Z,113.35
2023-02-15T18:56:20.817Z,132.90
2023-02-15T19:01:43.666Z,113.25
2023-02-15T19:07:07.442Z,102.95
2023-02-15T19:12:31.454Z,98.10
2023-02-15T19:17:54.192Z,95.40
2023-02-15T19:23:20.757Z,102.30
2023-02-15T19:28:51.633Z,100.20
2023-02-15T19:34:19.977Z,97.65
2023-02-15T19:39:51.534Z,95.32
2023-02-15T19:45:18.186Z,95.30
2023-02-15T19:50:46.651Z,98.92
2023-02-15T19:56:09.355Z,96.75
2023-02-15T20:01:31.691Z,97.82
2023-02-15T20:06:54.419Z,99.37
2023-02-15T20:12:19.091Z,122.55
2023-02-15T20:17:41.706Z,106.47
2023-02-15T20:23:05.350Z,95.00
2023-02-15T20:28:32.109Z,102.13
2023-02-15T20:33:55.147Z,98.97
2023-02-15T20:39:29.584Z,100.97
2023-02-15T20:44:51.962Z,101.53
2023-02-15T20:50:14.304Z,99.23
2023-02-15T20:55:42.993Z,112.43
2023-02-15T21:01:06.483Z,99.70
2023-02-15T21:06:30.384Z,96.73
2023-02-15T21:11:52.876Z,92.83
2023-02-15T21:17:17.197Z,95.60
2023-02-15T21:22:41.492Z,92.57
2023-02-15T21:28:03.793Z,101.82
2023-02-15T21:33:26.528Z,96.90
2023-02-15T21:38:49.819Z,94.28
2023-02-15T21:44:40.305Z,106.20
2023-02-15T21:55:21.176Z,102.00
2023-02-15T22:00:44.243Z,99.53
2023-02-15T22:06:06.622Z,94.20
2023-02-15T22:11:34.220Z,95.57
2023-02-15T22:16:56.659Z,146.20
2023-02-15T22:22:18.957Z,101.97
2023-02-15T22:27:45.165Z,108.40
2023-02-15T22:33:10.637Z,99.47
2023-02-15T22:38:32.339Z,99.03
2023-02-15T22:44:00.523Z,99.10
2023-02-15T22:49:25.040Z,102.17
2023-02-15T22:54:47.284Z,95.27
2023-02-15T23:00:11.079Z,103.57
2023-02-15T23:05:42.192Z,104.93
2023-02-15T23:11:07.542Z,104.20
2023-02-15T23:16:31.465Z,98.40
2023-02-15T23:21:55.901Z,109.40
2023-02-15T23:27:40.897Z,98.73
2023-02-15T23:33:04.780Z,105.30
2023-02-15T23:38:39.393Z,102.83
2023-02-15T23:44:10.501Z,105.33
2023-02-15T23:49:34.163Z,108.23
2023-02-15T23:54:56.398Z,107.83
